Time;durP1;ratioP1;P1;durP2;ratioP2;P2;SDS_P1;SDS_P2;PMS_P1;PMS_P2;Temp;Humidity;BMP_temperature;BMP_pressure;BME280_temperature;BME280_humidity;BME280_pressure;Samples;Min_cycle;Max_cycle;Signal;HPM_P1;HPM_P2
2023/10/20 00:00:44;0.00;0.00;0.62;0.00;0.00;0.62;2.80;2.10;;;22.50;26.90;;;;;;2268715;61;20375;-62
2023/10/20 00:03:29;0.00;0.00;0.62;0.00;0.00;0.62;3.13;2.50;;;22.50;26.90;;;;;;2268750;61;20438;-61
2023/10/20 00:06:16;0.00;0.00;0.62;0.00;0.00;0.62;3.30;2.70;;;22.50;26.90;;;;;;2268674;61;20381;-62
2023/10/20 00:09:00;0.00;0.00;0.62;0.00;0.00;0.62;3.57;2.67;;;22.50;26.90;;;;;;2268119;61;20505;-57
2023/10/20 00:11:45;0.00;0.00;0.62;0.00;0.00;0.62;2.27;1.83;;;22.50;26.90;;;;;;2268670;61;20358;-62
2023/10/20 00:14:29;0.00;0.00;0.62;0.00;0.00;0.62;3.13;2.23;;;22.50;26.90;;;;;;2268399;61;20359;-62
2023/10/20 00:17:14;0.00;0.00;0.62;0.00;0.00;0.62;2.97;2.23;;;22.50;26.90;;;;;;2268868;61;20367;-62
2023/10/20 00:19:59;0.00;0.00;0.62;0.00;0.00;0.62;2.43;2.20;;;22.50;26.90;;;;;;2267924;61;20348;-61
2023/10/20 00:22:45;0.00;0.00;0.62;0.00;0.00;0.62;2.73;2.20;;;22.50;26.90;;;;;;2268569;61;20383;-63
2023/10/20 00:25:30;0.00;0.00;0.62;0.00;0.00;0.62;2.70;2.03;;;22.50;26.90;;;;;;2268626;61;20455;-64
2023/10/20 00:28:14;0.00;0.00;0.62;0.00;0.00;0.62;2.60;2.10;;;22.50;26.90;;;;;;2268009;61;20450;-61
2023/10/20 00:30:59;0.00;0.00;0.62;0.00;0.00;0.62;2.93;1.90;;;22.50;26.90;;;;;;2268412;61;20363;-62
2023/10/20 00:33:45;0.00;0.00;0.62;0.00;0.00;0.62;2.77;1.90;;;22.50;26.90;;;;;;2268381;61;20433;-61
2023/10/20 00:36:30;0.00;0.00;0.62;0.00;0.00;0.62;2.67;2.20;;;22.50;26.90;;;;;;2265073;61;20443;-62
2023/10/20 00:39:16;0.00;0.00;0.62;0.00;0.00;0.62;2.73;2.13;;;22.50;26.90;;;;;;2265025;61;20401;-62
2023/10/20 00:42:02;0.00;0.00;0.62;0.00;0.00;0.62;2.40;2.20;;;22.50;26.90;;;;;;2268214;61;20795;-63
2023/10/20 00:44:46;0.00;0.00;0.62;0.00;0.00;0.62;2.33;1.90;;;22.50;26.90;;;;;;2265289;61;20354;-62
2023/10/20 00:47:31;0.00;0.00;0.62;0.00;0.00;0.62;2.83;2.17;;;22.50;26.90;;;;;;2268381;61;20363;-62
2023/10/20 00:50:16;0.00;0.00;0.62;0.00;0.00;0.62;2.47;2.10;;;22.50;26.90;;;;;;2265124;61;20407;-61
2023/10/20 00:53:02;0.00;0.00;0.62;0.00;0.00;0.62;2.30;1.60;;;22.50;26.90;;;;;;2268237;61;20429;-65
2023/10/20 00:55:48;0.00;0.00;0.62;0.00;0.00;0.62;2.43;1.97;;;22.50;26.90;;;;;;2268779;61;20375;-63
2023/10/20 00:58:33;0.00;0.00;0.62;0.00;0.00;0.62;3.43;2.10;;;22.50;26.90;;;;;;2268635;61;20367;-59
2023/10/20 01:01:18;0.00;0.00;0.62;0.00;0.00;0.62;2.27;1.57;;;22.50;26.90;;;;;;2269310;61;20390;-61
2023/10/20 01:04:03;0.00;0.00;0.62;0.00;0.00;0.62;2.07;1.60;;;22.50;27.40;;;;;;2265432;61;20410;-62
2023/10/20 01:06:49;0.00;0.00;0.62;0.00;0.00;0.62;2.43;2.00;;;22.50;26.90;;;;;;2269190;61;20378;-62
2023/10/20 01:09:33;0.00;0.00;0.62;0.00;0.00;0.62;2.73;2.10;;;22.50;26.90;;;;;;2265126;61;21045;-58
2023/10/20 01:12:20;0.00;0.00;0.62;0.00;0.00;0.62;2.87;2.40;;;22.50;26.90;;;;;;2261770;61;20423;-61
2023/10/20 01:15:06;0.00;0.00;0.62;0.00;0.00;0.62;2.73;2.10;;;22.50;26.90;;;;;;2265059;61;20406;-62
2023/10/20 01:17:51;0.00;0.00;0.62;0.00;0.00;0.62;2.10;1.77;;;22.50;26.90;;;;;;2261588;61;20394;-63
2023/10/20 01:20:36;0.00;0.00;0.62;0.00;0.00;0.62;2.40;2.00;;;22.50;26.90;;;;;;2264357;61;20782;-62
2023/10/20 01:23:21;0.00;0.00;0.62;0.00;0.00;0.62;2.57;1.93;;;22.50;26.90;;;;;;2267964;61;20430;-63
2023/10/20 01:26:07;0.00;0.00;0.62;0.00;0.00;0.62;2.83;1.90;;;22.50;26.90;;;;;;2269166;61;20358;-62
2023/10/20 01:28:52;0.00;0.00;0.62;0.00;0.00;0.62;2.37;1.80;;;22.50;26.90;;;;;;2268640;61;20397;-63
2023/10/20 01:31:37;0.00;0.00;0.62;0.00;0.00;0.62;2.63;2.43;;;22.50;26.90;;;;;;2269031;61;20375;-65
2023/10/20 01:34:21;0.00;0.00;0.62;0.00;0.00;0.62;2.13;1.80;;;22.50;26.90;;;;;;2268858;61;20501;-62
2023/10/20 01:37:10;0.00;0.00;0.62;0.00;0.00;0.62;2.67;2.13;;;22.50;26.90;;;;;;2269087;61;20390;-62
2023/10/20 01:39:55;0.00;0.00;0.62;0.00;0.00;0.62;2.23;1.57;;;22.50;26.90;;;;;;2268765;61;20363;-60
2023/10/20 01:42:41;0.00;0.00;0.62;0.00;0.00;0.62;2.10;1.70;;;22.50;26.90;;;;;;2265194;61;20435;-61
2023/10/20 01:45:25;0.00;0.00;0.62;0.00;0.00;0.62;2.53;2.10;;;22.50;26.90;;;;;;2265792;61;20355;-61
2023/10/20 01:48:10;0.00;0.00;0.62;0.00;0.00;0.62;2.63;1.83;;;22.50;26.90;;;;;;2264771;61;20417;-62
2023/10/20 01:50:55;0.00;0.00;0.62;0.00;0.00;0.62;2.50;1.67;;;22.50;26.90;;;;;;2265579;61;20379;-61
2023/10/20 01:53:40;0.00;0.00;0.62;0.00;0.00;0.62;2.40;2.00;;;22.50;26.90;;;;;;2265740;61;20426;-61
2023/10/20 01:56:24;0.00;0.00;0.62;0.00;0.00;0.62;2.67;1.93;;;22.50;26.90;;;;;;2268933;61;20362;-61
2023/10/20 01:59:11;0.00;0.00;0.62;0.00;0.00;0.62;2.60;1.63;;;22.50;26.90;;;;;;2265336;61;20933;-62
2023/10/20 02:01:56;0.00;0.00;0.62;0.00;0.00;0.62;2.43;1.97;;;22.40;26.90;;;;;;2266100;61;20389;-62
2023/10/20 02:04:41;0.00;0.00;0.62;0.00;0.00;0.62;2.83;1.97;;;22.50;26.90;;;;;;2268885;61;20756;-61
2023/10/20 02:07:25;0.00;0.00;0.62;0.00;0.00;0.62;3.20;2.20;;;22.50;26.90;;;;;;2269003;61;20812;-62
2023/10/20 02:10:10;0.00;0.00;0.62;0.00;0.00;0.62;2.23;1.63;;;22.50;26.90;;;;;;2262750;61;20441;-62
2023/10/20 02:12:55;0.00;0.00;0.62;0.00;0.00;0.62;2.30;1.93;;;22.50;27.40;;;;;;2268989;61;20796;-62
2023/10/20 02:15:46;0.00;0.00;0.62;0.00;0.00;0.62;2.10;1.90;;;22.50;26.90;;;;;;2268767;61;20504;-62
2023/10/20 02:18:31;0.00;0.00;0.62;0.00;0.00;0.62;3.00;2.17;;;22.50;26.90;;;;;;2268548;61;20368;-61
2023/10/20 02:21:17;0.00;0.00;0.62;0.00;0.00;0.62;2.10;1.70;;;22.50;26.90;;;;;;2268679;61;20471;-61
2023/10/20 02:24:01;0.00;0.00;0.62;0.00;0.00;0.62;2.43;2.03;;;22.50;26.90;;;;;;2268882;61;20395;-59
2023/10/20 02:26:46;0.00;0.00;0.62;0.00;0.00;0.62;2.00;1.80;;;22.40;26.80;;;;;;2268863;61;20402;-62
2023/10/20 02:29:33;0.00;0.00;0.62;0.00;0.00;0.62;2.03;1.57;;;22.50;26.90;;;;;;2268630;61;20417;-61
2023/10/20 02:32:19;0.00;0.00;0.62;0.00;0.00;0.62;2.13;1.70;;;22.50;26.90;;;;;;2268762;61;20473;-60
2023/10/20 02:35:06;0.00;0.00;0.62;0.00;0.00;0.62;2.20;1.73;;;22.50;26.90;;;;;;2265490;61;20421;-59
2023/10/20 02:37:50;0.00;0.00;0.62;0.00;0.00;0.62;2.40;2.10;;;22.40;26.90;;;;;;2268565;61;20439;-61
2023/10/20 02:40:36;0.00;0.00;0.62;0.00;0.00;0.62;2.00;1.60;;;22.50;26.90;;;;;;2265742;61;20408;-62
2023/10/20 02:43:21;0.00;0.00;0.62;0.00;0.00;0.62;2.40;2.20;;;22.50;26.90;;;;;;2268877;61;20913;-60
2023/10/20 02:46:07;0.00;0.00;0.62;0.00;0.00;0.62;1.97;1.50;;;22.50;26.90;;;;;;2269056;61;20781;-62
2023/10/20 02:48:53;0.00;0.00;0.62;0.00;0.00;0.62;1.90;1.37;;;22.40;26.90;;;;;;2265409;61;20359;-62
2023/10/20 02:51:39;0.00;0.00;0.62;0.00;0.00;0.62;2.60;1.70;;;22.40;26.90;;;;;;2268800;61;20470;-61
2023/10/20 02:54:23;0.00;0.00;0.62;0.00;0.00;0.62;2.50;2.03;;;22.40;26.90;;;;;;2268946;61;20363;-59
2023/10/20 02:57:08;0.00;0.00;0.62;0.00;0.00;0.62;2.50;1.90;;;22.40;26.90;;;;;;2268764;61;20478;-62
2023/10/20 02:59:53;0.00;0.00;0.62;0.00;0.00;0.62;2.50;1.87;;;22.40;26.90;;;;;;2268516;61;20409;-61
2023/10/20 03:02:37;0.00;0.00;0.62;0.00;0.00;0.62;2.00;1.53;;;22.40;26.90;;;;;;2268663;61;20433;-62
2023/10/20 03:05:29;0.00;0.00;0.62;0.00;0.00;0.62;2.10;1.60;;;22.40;26.90;;;;;;2268823;61;20371;-62
2023/10/20 03:08:14;0.00;0.00;0.62;0.00;0.00;0.62;2.53;1.97;;;22.40;26.90;;;;;;2265215;61;20367;-67
2023/10/20 03:10:59;0.00;0.00;0.62;0.00;0.00;0.62;2.10;1.43;;;22.40;26.80;;;;;;2264948;61;20386;-61
2023/10/20 03:13:44;0.00;0.00;0.62;0.00;0.00;0.62;1.90;1.40;;;22.40;26.90;;;;;;2268861;61;20379;-59
2023/10/20 03:16:29;0.00;0.00;0.62;0.00;0.00;0.62;2.33;1.60;;;22.40;26.90;;;;;;2268633;61;20363;-62
2023/10/20 03:19:14;0.00;0.00;0.62;0.00;0.00;0.62;2.40;1.63;;;22.40;26.90;;;;;;2264551;61;20359;-62
2023/10/20 03:22:00;0.00;0.00;0.62;0.00;0.00;0.62;2.17;1.53;;;22.40;26.90;;;;;;2268874;61;20371;-62
2023/10/20 03:24:45;0.00;0.00;0.62;0.00;0.00;0.62;2.00;1.37;;;22.40;26.80;;;;;;2265510;61;20378;-61
2023/10/20 03:27:30;0.00;0.00;0.62;0.00;0.00;0.62;2.70;1.60;;;22.40;26.90;;;;;;2268783;61;20363;-62
2023/10/20 03:30:15;0.00;0.00;0.62;0.00;0.00;0.62;2.10;1.80;;;22.40;26.90;;;;;;2268488;61;20433;-65
2023/10/20 03:33:00;0.00;0.00;0.62;0.00;0.00;0.62;3.13;1.60;;;22.40;26.90;;;;;;2268432;61;20378;-62
2023/10/20 03:35:45;0.00;0.00;0.62;0.00;0.00;0.62;1.97;1.30;;;22.40;26.90;;;;;;2268850;61;20889;-61
2023/10/20 03:38:32;0.00;0.00;0.62;0.00;0.00;0.62;2.10;1.50;;;22.40;26.90;;;;;;2265179;61;20359;-61
2023/10/20 03:41:17;0.00;0.00;0.62;0.00;0.00;0.62;2.20;1.60;;;22.40;26.90;;;;;;2268495;61;20395;-62
2023/10/20 03:44:03;0.00;0.00;0.62;0.00;0.00;0.62;3.00;1.77;;;22.40;26.80;;;;;;2265357;61;20383;-61
2023/10/20 03:46:49;0.00;0.00;0.62;0.00;0.00;0.62;2.00;1.60;;;22.40;26.90;;;;;;2268750;61;20366;-62
2023/10/20 03:49:35;0.00;0.00;0.62;0.00;0.00;0.62;1.90;1.60;;;22.40;26.90;;;;;;2267989;61;20406;-62
2023/10/20 03:52:20;0.00;0.00;0.62;0.00;0.00;0.62;1.80;1.20;;;22.40;26.90;;;;;;2268620;61;20475;-62
2023/10/20 03:55:08;0.00;0.00;0.62;0.00;0.00;0.62;2.27;1.53;;;22.40;26.90;;;;;;2268580;61;20892;-62
2023/10/20 03:57:52;0.00;0.00;0.62;0.00;0.00;0.62;1.67;1.20;;;22.40;26.90;;;;;;2268245;61;20415;-61
2023/10/20 04:00:41;0.00;0.00;0.62;0.00;0.00;0.62;1.80;1.30;;;22.40;26.90;;;;;;2268780;61;20360;-61
2023/10/20 04:03:26;0.00;0.00;0.62;0.00;0.00;0.62;2.07;1.70;;;22.40;26.90;;;;;;2268352;61;20395;-62
2023/10/20 04:06:12;0.00;0.00;0.62;0.00;0.00;0.62;2.70;1.37;;;22.40;26.90;;;;;;2268700;61;20444;-62
2023/10/20 04:08:57;0.00;0.00;0.62;0.00;0.00;0.62;1.97;1.43;;;22.40;26.90;;;;;;2268429;61;20954;-59
2023/10/20 04:11:44;0.00;0.00;0.62;0.00;0.00;0.62;1.70;1.10;;;22.40;26.90;;;;;;2268495;61;20447;-62
2023/10/20 04:14:29;0.00;0.00;0.62;0.00;0.00;0.62;2.20;1.40;;;22.40;26.90;;;;;;2268649;61;20390;-62
2023/10/20 04:17:15;0.00;0.00;0.62;0.00;0.00;0.62;2.43;1.70;;;22.40;26.90;;;;;;2268233;61;20367;-61
2023/10/20 04:20:02;0.00;0.00;0.62;0.00;0.00;0.62;2.70;1.70;;;22.40;26.90;;;;;;2268485;61;20875;-62
2023/10/20 04:22:51;0.00;0.00;0.62;0.00;0.00;0.62;1.90;1.50;;;22.40;26.90;;;;;;2265473;61;20847;-62
2023/10/20 04:25:49;0.00;0.00;0.62;0.00;0.00;0.62;1.83;1.43;;;22.40;26.90;;;;;;2268586;61;20912;-62
2023/10/20 04:28:44;0.00;0.00;0.62;0.00;0.00;0.62;2.37;1.63;;;22.40;26.90;;;;;;2268161;61;20424;-62
2023/10/20 04:44:57;0.00;0.00;0.62;0.00;0.00;0.62;2.13;1.70;;;22.30;26.80;;;;;;2268472;61;20437;-62
2023/10/20 04:52:55;0.00;0.00;0.62;0.00;0.00;0.62;2.00;1.50;;;22.30;26.80;;;;;;2268532;61;20811;-62
2023/10/20 05:01:47;0.00;0.00;0.62;0.00;0.00;0.62;2.33;1.97;;;22.30;26.80;;;;;;2268197;61;20358;-62
2023/10/20 05:04:36;0.00;0.00;0.62;0.00;0.00;0.62;1.97;1.40;;;22.30;26.90;;;;;;2268415;61;20461;-62
2023/10/20 05:07:26;0.00;0.00;0.62;0.00;0.00;0.62;2.13;1.43;;;22.30;26.80;;;;;;2268548;61;20923;-62
2023/10/20 05:10:11;0.00;0.00;0.62;0.00;0.00;0.62;1.70;1.20;;;22.30;26.90;;;;;;2268027;61;20977;-62
2023/10/20 05:12:55;0.00;0.00;0.62;0.00;0.00;0.62;1.80;1.23;;;22.30;26.90;;;;;;2268454;61;20903;-62
2023/10/20 05:15:40;0.00;0.00;0.62;0.00;0.00;0.62;2.20;1.50;;;22.40;26.90;;;;;;2268421;61;20358;-62
2023/10/20 05:18:26;0.00;0.00;0.62;0.00;0.00;0.62;2.20;1.43;;;22.30;26.90;;;;;;2265064;61;20359;-62
2023/10/20 05:21:12;0.00;0.00;0.62;0.00;0.00;0.62;1.80;1.20;;;22.30;26.90;;;;;;2268284;61;20409;-62
2023/10/20 05:23:56;0.00;0.00;0.62;0.00;0.00;0.62;2.30;1.60;;;22.30;26.90;;;;;;2267897;61;20456;-61
2023/10/20 05:26:44;0.00;0.00;0.62;0.00;0.00;0.62;2.27;1.57;;;22.30;26.80;;;;;;2268485;61;20409;-62
2023/10/20 05:29:29;0.00;0.00;0.62;0.00;0.00;0.62;2.00;1.37;;;22.30;26.80;;;;;;2267978;61;20378;-61
2023/10/20 05:32:15;0.00;0.00;0.62;0.00;0.00;0.62;2.50;1.70;;;22.30;26.90;;;;;;2264883;61;20448;-60
2023/10/20 05:35:01;0.00;0.00;0.62;0.00;0.00;0.62;2.00;1.30;;;22.30;26.90;;;;;;2268456;61;20366;-59
2023/10/20 05:37:46;0.00;0.00;0.62;0.00;0.00;0.62;1.70;1.10;;;22.30;26.80;;;;;;2268122;61;20440;-62
2023/10/20 05:40:30;0.00;0.00;0.62;0.00;0.00;0.62;2.07;1.53;;;22.30;26.90;;;;;;2268301;61;20390;-62
2023/10/20 05:43:15;0.00;0.00;0.62;0.00;0.00;0.62;1.97;1.43;;;22.30;26.90;;;;;;2269019;61;20444;-62
2023/10/20 05:45:59;0.00;0.00;0.62;0.00;0.00;0.62;1.90;1.30;;;22.30;26.90;;;;;;2268943;61;20363;-62
2023/10/20 05:48:45;0.00;0.00;0.62;0.00;0.00;0.62;1.90;1.30;;;22.30;26.80;;;;;;2268816;61;20682;-62
2023/10/20 05:51:30;0.00;0.00;0.62;0.00;0.00;0.62;1.80;1.30;;;22.30;26.90;;;;;;2269013;61;20489;-61
2023/10/20 05:54:15;0.00;0.00;0.62;0.00;0.00;0.62;1.70;1.17;;;22.30;26.90;;;;;;2268965;61;20383;-62
2023/10/20 05:57:00;0.00;0.00;0.62;0.00;0.00;0.62;1.60;1.10;;;22.30;26.90;;;;;;2269102;61;20379;-62
2023/10/20 05:59:46;0.00;0.00;0.62;0.00;0.00;0.62;1.90;1.20;;;22.30;26.90;;;;;;2268787;61;20449;-62
2023/10/20 06:02:32;0.00;0.00;0.62;0.00;0.00;0.62;2.57;1.20;;;22.30;26.90;;;;;;2269007;61;20433;-62
2023/10/20 06:05:16;0.00;0.00;0.62;0.00;0.00;0.62;2.30;1.43;;;22.30;26.90;;;;;;2269154;61;20489;-62
2023/10/20 06:08:02;0.00;0.00;0.62;0.00;0.00;0.62;1.87;1.20;;;22.30;26.90;;;;;;2265219;61;20420;-62
2023/10/20 06:10:47;0.00;0.00;0.62;0.00;0.00;0.62;2.17;1.47;;;22.30;26.90;;;;;;2269013;61;20398;-59
2023/10/20 06:13:35;0.00;0.00;0.62;0.00;0.00;0.62;1.97;1.23;;;22.30;26.90;;;;;;2269037;61;20418;-62
2023/10/20 06:16:20;0.00;0.00;0.62;0.00;0.00;0.62;2.57;1.50;;;22.30;26.90;;;;;;2268785;61;20445;-58
2023/10/20 06:19:05;0.00;0.00;0.62;0.00;0.00;0.62;2.40;1.40;;;22.30;26.90;;;;;;2265507;61;20363;-62
2023/10/20 06:21:50;0.00;0.00;0.62;0.00;0.00;0.62;2.53;1.50;;;22.30;26.90;;;;;;2268818;61;20363;-62
2023/10/20 06:24:36;0.00;0.00;0.62;0.00;0.00;0.62;2.27;1.40;;;22.30;26.90;;;;;;2268778;61;20508;-62
2023/10/20 06:27:20;0.00;0.00;0.62;0.00;0.00;0.62;2.27;1.67;;;22.30;26.90;;;;;;2268952;61;20891;-61
2023/10/20 06:30:12;0.00;0.00;0.62;0.00;0.00;0.62;2.30;1.50;;;22.30;26.90;;;;;;2268152;61;20876;-62
2023/10/20 06:33:16;0.00;0.00;0.62;0.00;0.00;0.62;1.97;1.40;;;22.30;26.90;;;;;;2268853;61;20394;-60
2023/10/20 06:36:10;0.00;0.00;0.62;0.00;0.00;0.62;1.87;1.37;;;22.30;26.90;;;;;;2260172;61;20380;-62
2023/10/20 06:38:55;0.00;0.00;0.62;0.00;0.00;0.62;2.20;1.60;;;22.30;26.90;;;;;;2265162;61;20403;-62
2023/10/20 06:41:41;0.00;0.00;0.62;0.00;0.00;0.62;2.10;1.47;;;22.30;26.90;;;;;;2268885;61;20954;-61
2023/10/20 06:44:30;0.00;0.00;0.62;0.00;0.00;0.62;1.80;1.23;;;22.30;26.90;;;;;;2265366;61;20360;-61
2023/10/20 06:47:15;0.00;0.00;0.62;0.00;0.00;0.62;2.50;1.30;;;22.30;26.90;;;;;;2268865;61;20402;-62
2023/10/20 06:49:59;0.00;0.00;0.62;0.00;0.00;0.62;1.87;1.40;;;22.30;26.90;;;;;;2268483;61;20428;-66
2023/10/20 06:52:44;0.00;0.00;0.62;0.00;0.00;0.62;2.30;1.70;;;22.30;26.90;;;;;;2268691;61;20406;-62
2023/10/20 06:55:29;0.00;0.00;0.62;0.00;0.00;0.62;2.20;1.50;;;22.30;26.90;;;;;;2268871;61;20359;-62
2023/10/20 06:58:17;0.00;0.00;0.62;0.00;0.00;0.62;1.97;1.47;;;22.30;26.90;;;;;;2268662;61;20391;-62
2023/10/20 07:01:05;0.00;0.00;0.62;0.00;0.00;0.62;2.40;1.50;;;22.20;26.90;;;;;;2268788;61;20359;-60
2023/10/20 07:03:50;0.00;0.00;0.62;0.00;0.00;0.62;2.33;1.57;;;22.20;26.80;;;;;;2268987;61;20442;-62
2023/10/20 07:06:34;0.00;0.00;0.62;0.00;0.00;0.62;1.80;1.23;;;22.30;26.90;;;;;;2268803;61;20364;-62
2023/10/20 07:09:20;0.00;0.00;0.62;0.00;0.00;0.62;2.00;1.27;;;22.20;26.80;;;;;;2268489;61;20359;-61
2023/10/20 07:12:06;0.00;0.00;0.62;0.00;0.00;0.62;2.10;1.20;;;22.20;26.80;;;;;;2268642;61;20378;-61
2023/10/20 07:14:52;0.00;0.00;0.62;0.00;0.00;0.62;1.90;1.30;;;22.30;26.90;;;;;;2268538;61;20907;-62
2023/10/20 07:17:37;0.00;0.00;0.62;0.00;0.00;0.62;2.03;1.30;;;22.30;26.90;;;;;;2268755;61;20417;-60
2023/10/20 07:20:21;0.00;0.00;0.62;0.00;0.00;0.62;2.50;1.63;;;22.20;26.90;;;;;;2268796;61;20367;-62
2023/10/20 07:23:06;0.00;0.00;0.62;0.00;0.00;0.62;1.97;1.33;;;22.20;26.80;;;;;;2268592;61;20383;-60
2023/10/20 07:25:50;0.00;0.00;0.62;0.00;0.00;0.62;1.80;1.20;;;22.20;26.90;;;;;;2268814;61;20371;-62
2023/10/20 07:28:35;0.00;0.00;0.62;0.00;0.00;0.62;2.03;1.40;;;22.30;26.90;;;;;;2268401;61;20432;-61
2023/10/20 07:31:26;0.00;0.00;0.62;0.00;0.00;0.62;2.33;1.40;;;22.30;26.90;;;;;;2268560;61;20529;-62
2023/10/20 07:34:10;0.00;0.00;0.62;0.00;0.00;0.62;2.33;1.63;;;22.20;26.90;;;;;;2268737;61;20497;-62
2023/10/20 07:36:56;0.00;0.00;0.62;0.00;0.00;0.62;2.40;1.50;;;22.20;26.90;;;;;;2268505;61;20391;-62
2023/10/20 07:39:41;0.00;0.00;0.62;0.00;0.00;0.62;2.00;1.60;;;22.20;26.90;;;;;;2268447;61;20362;-61
2023/10/20 07:42:25;0.00;0.00;0.62;0.00;0.00;0.62;2.60;1.40;;;22.20;26.90;;;;;;2268828;61;20379;-60
2023/10/20 07:45:10;0.00;0.00;0.62;0.00;0.00;0.62;2.07;1.20;;;22.20;26.90;;;;;;2268516;61;20429;-60
2023/10/20 07:47:56;0.00;0.00;0.62;0.00;0.00;0.62;2.37;1.63;;;22.20;26.90;;;;;;2268103;61;20412;-62
2023/10/20 07:50:40;0.00;0.00;0.62;0.00;0.00;0.62;1.93;1.40;;;22.20;26.90;;;;;;2268760;61;20432;-62
2023/10/20 07:53:25;0.00;0.00;0.62;0.00;0.00;0.62;3.00;1.70;;;22.20;26.90;;;;;;2268432;61;20418;-63
2023/10/20 07:56:09;0.00;0.00;0.62;0.00;0.00;0.62;2.17;1.43;;;22.20;26.90;;;;;;2268755;61;20883;-62
2023/10/20 07:58:54;0.00;0.00;0.62;0.00;0.00;0.62;2.50;1.60;;;22.20;26.90;;;;;;2268088;61;20378;-62
2023/10/20 08:01:38;0.00;0.00;0.62;0.00;0.00;0.62;1.90;1.40;;;22.20;26.90;;;;;;2268919;61;20355;-62
2023/10/20 08:04:26;0.00;0.00;0.62;0.00;0.00;0.62;3.03;1.60;;;22.20;26.90;;;;;;2268840;61;20454;-62
2023/10/20 08:07:11;0.00;0.00;0.62;0.00;0.00;0.62;2.97;1.73;;;22.20;26.90;;;;;;2268441;61;20398;-62
2023/10/20 08:09:56;0.00;0.00;0.62;0.00;0.00;0.62;1.97;1.43;;;22.20;26.90;;;;;;2268241;61;20423;-62
2023/10/20 08:12:40;0.00;0.00;0.62;0.00;0.00;0.62;2.13;1.40;;;22.20;26.90;;;;;;2268590;61;20382;-62
2023/10/20 08:15:28;0.00;0.00;0.62;0.00;0.00;0.62;1.97;1.30;;;22.20;26.90;;;;;;2265495;61;20409;-62
2023/10/20 08:18:12;0.00;0.00;0.62;0.00;0.00;0.62;2.43;1.67;;;22.20;26.90;;;;;;2268122;61;20409;-62
2023/10/20 08:21:04;0.00;0.00;0.62;0.00;0.00;0.62;2.30;1.63;;;22.20;26.90;;;;;;2268376;61;20367;-62
2023/10/20 08:23:49;0.00;0.00;0.62;0.00;0.00;0.62;3.13;1.93;;;22.20;26.90;;;;;;2268604;61;20387;-60
2023/10/20 08:26:34;0.00;0.00;0.62;0.00;0.00;0.62;2.60;1.90;;;22.20;26.90;;;;;;2268636;61;20368;-61
2023/10/20 08:29:18;0.00;0.00;0.62;0.00;0.00;0.62;2.80;2.03;;;22.20;26.90;;;;;;2267941;61;20428;-62
2023/10/20 08:32:03;0.00;0.00;0.62;0.00;0.00;0.62;3.57;1.63;;;22.20;26.90;;;;;;2268605;61;20433;-64
2023/10/20 08:34:48;0.00;0.00;0.62;0.00;0.00;0.62;2.50;1.83;;;22.20;26.90;;;;;;2268500;61;20406;-61
2023/10/20 08:37:35;0.00;0.00;0.62;0.00;0.00;0.62;2.23;1.53;;;22.20;26.90;;;;;;2268276;61;20389;-62
2023/10/20 08:40:20;0.00;0.00;0.62;0.00;0.00;0.62;2.47;1.73;;;22.20;26.90;;;;;;2268465;61;20363;-61
2023/10/20 08:43:05;0.00;0.00;0.62;0.00;0.00;0.62;2.10;1.50;;;22.20;26.90;;;;;;2268358;61;20387;-62
2023/10/20 08:45:50;0.00;0.00;0.62;0.00;0.00;0.62;2.20;1.60;;;22.20;26.90;;;;;;2268468;61;20953;-62
2023/10/20 08:48:37;0.00;0.00;0.62;0.00;0.00;0.62;2.13;1.40;;;22.20;26.90;;;;;;2268119;61;20918;-62
2023/10/20 08:51:23;0.00;0.00;0.62;0.00;0.00;0.62;2.87;1.80;;;22.20;26.90;;;;;;2268552;61;20465;-62
2023/10/20 08:54:09;0.00;0.00;0.62;0.00;0.00;0.62;2.40;1.70;;;22.20;26.90;;;;;;2268500;61;20783;-62
2023/10/20 08:56:54;0.00;0.00;0.62;0.00;0.00;0.62;2.10;1.70;;;22.20;26.90;;;;;;2265336;61;20367;-61
2023/10/20 08:59:38;0.00;0.00;0.62;0.00;0.00;0.62;2.37;1.73;;;22.20;26.90;;;;;;2268069;61;20367;-62
2023/10/20 09:02:23;0.00;0.00;0.62;0.00;0.00;0.62;2.33;1.40;;;22.20;26.90;;;;;;2265376;61;20428;-61
2023/10/20 09:05:09;0.00;0.00;0.62;0.00;0.00;0.62;1.97;1.40;;;22.20;26.90;;;;;;2268482;61;20375;-62
2023/10/20 09:07:56;0.00;0.00;0.62;0.00;0.00;0.62;2.57;1.70;;;22.20;26.90;;;;;;2268376;61;20378;-61
2023/10/20 09:10:45;0.00;0.00;0.62;0.00;0.00;0.62;1.97;1.37;;;22.20;26.90;;;;;;2268536;61;20939;-61
2023/10/20 09:13:32;0.00;0.00;0.62;0.00;0.00;0.62;2.37;1.50;;;22.20;26.90;;;;;;2268143;61;20383;-62
2023/10/20 09:16:17;0.00;0.00;0.62;0.00;0.00;0.62;2.00;1.50;;;22.20;27.40;;;;;;2268388;61;20367;-61
2023/10/20 09:19:03;0.00;0.00;0.62;0.00;0.00;0.62;2.47;1.37;;;22.20;26.90;;;;;;2265702;61;20925;-63
2023/10/20 09:21:48;0.00;0.00;0.62;0.00;0.00;0.62;2.30;1.57;;;22.20;26.90;;;;;;2269080;61;20915;-60
2023/10/20 09:24:34;0.00;0.00;0.62;0.00;0.00;0.62;1.90;1.40;;;22.20;26.90;;;;;;2269121;61;20933;-63
2023/10/20 09:27:22;0.00;0.00;0.62;0.00;0.00;0.62;2.30;1.37;;;22.20;26.90;;;;;;2269397;61;21006;-62
2023/10/20 09:30:08;0.00;0.00;0.62;0.00;0.00;0.62;2.37;1.40;;;22.20;26.90;;;;;;2268607;61;20984;-63
2023/10/20 09:32:53;0.00;0.00;0.62;0.00;0.00;0.62;2.20;1.67;;;22.20;26.90;;;;;;2269246;61;20468;-63
2023/10/20 09:35:40;0.00;0.00;0.62;0.00;0.00;0.62;2.57;1.73;;;22.20;26.90;;;;;;2265657;61;20397;-62
2023/10/20 09:38:26;0.00;0.00;0.62;0.00;0.00;0.62;1.97;1.30;;;22.20;26.90;;;;;;2268763;61;20432;-62
2023/10/20 09:41:14;0.00;0.00;0.62;0.00;0.00;0.62;2.10;1.53;;;22.20;26.90;;;;;;2269086;61;20367;-61
2023/10/20 09:44:08;0.00;0.00;0.62;0.00;0.00;0.62;2.90;1.83;;;22.10;26.80;;;;;;2265611;61;20386;-62
2023/10/20 09:46:58;0.00;0.00;0.62;0.00;0.00;0.62;3.00;1.90;;;22.10;26.80;;;;;;2269076;61;20784;-62
2023/10/20 09:49:43;0.00;0.00;0.62;0.00;0.00;0.62;2.63;1.97;;;22.20;26.90;;;;;;2268632;61;20362;-61
2023/10/20 09:52:29;0.00;0.00;0.62;0.00;0.00;0.62;2.53;2.03;;;22.20;26.90;;;;;;2269090;61;20379;-62
2023/10/20 09:55:14;0.00;0.00;0.62;0.00;0.00;0.62;3.07;1.90;;;22.20;26.90;;;;;;2269213;61;20401;-62
2023/10/20 09:57:59;0.00;0.00;0.62;0.00;0.00;0.62;3.50;2.60;;;22.10;26.90;;;;;;2268864;61;20988;-62
2023/10/20 10:00:46;0.00;0.00;0.62;0.00;0.00;0.62;6.00;2.70;;;22.10;26.80;;;;;;2269052;61;20359;-61
2023/10/20 10:03:40;0.00;0.00;0.62;0.00;0.00;0.62;3.67;2.57;;;22.10;26.90;;;;;;2265763;61;20399;-62
2023/10/20 10:06:26;0.00;0.00;0.62;0.00;0.00;0.62;3.00;2.30;;;22.20;26.90;;;;;;2269085;61;20363;-62
2023/10/20 10:09:10;0.00;0.00;0.62;0.00;0.00;0.62;3.23;2.40;;;22.10;26.90;;;;;;2268628;61;20363;-61
2023/10/20 10:11:55;0.00;0.00;0.62;0.00;0.00;0.62;3.30;2.70;;;22.10;26.80;;;;;;2268808;61;20425;-62
2023/10/20 10:14:40;0.00;0.00;0.62;0.00;0.00;0.62;3.20;2.57;;;22.20;26.90;;;;;;2269095;61;20447;-63
2023/10/20 10:17:26;0.00;0.00;0.62;0.00;0.00;0.62;3.80;2.87;;;22.10;26.90;;;;;;2269144;61;20819;-61
2023/10/20 10:20:19;0.00;0.00;0.62;0.00;0.00;0.62;3.40;2.50;;;22.10;26.90;;;;;;2265567;61;20367;-64
2023/10/20 10:23:05;0.00;0.00;0.62;0.00;0.00;0.62;3.50;2.50;;;22.10;26.90;;;;;;2269020;61;20395;-62
2023/10/20 10:25:50;0.00;0.00;0.62;0.00;0.00;0.62;3.47;2.37;;;22.10;26.90;;;;;;2269019;61;20367;-63
2023/10/20 10:28:34;0.00;0.00;0.62;0.00;0.00;0.62;3.97;2.93;;;22.10;26.80;;;;;;2268521;61;20370;-63
2023/10/20 10:31:19;0.00;0.00;0.62;0.00;0.00;0.62;3.60;2.87;;;22.10;26.80;;;;;;2268684;61;20391;-60
2023/10/20 10:34:05;0.00;0.00;0.62;0.00;0.00;0.62;2.90;2.20;;;22.10;26.90;;;;;;2264451;61;20480;-63
2023/10/20 10:36:49;0.00;0.00;0.62;0.00;0.00;0.62;3.57;2.97;;;22.20;26.90;;;;;;2265042;61;20499;-63
2023/10/20 10:39:34;0.00;0.00;0.62;0.00;0.00;0.62;4.20;3.20;;;22.20;26.90;;;;;;2264486;61;20422;-60
2023/10/20 10:42:19;0.00;0.00;0.62;0.00;0.00;0.62;3.83;3.00;;;22.10;26.80;;;;;;2264710;61;20388;-62
2023/10/20 10:45:23;0.00;0.00;0.62;0.00;0.00;0.62;4.23;3.33;;;22.10;26.90;;;;;;2265024;61;20411;-62
2023/10/20 10:48:09;0.00;0.00;0.62;0.00;0.00;0.62;3.87;3.30;;;22.10;26.90;;;;;;2264483;61;20360;-60
2023/10/20 10:50:56;0.00;0.00;0.62;0.00;0.00;0.62;4.10;2.67;;;22.10;26.90;;;;;;2264691;61;20455;-61
2023/10/20 10:53:43;0.00;0.00;0.62;0.00;0.00;0.62;3.53;3.00;;;22.10;26.90;;;;;;2264759;61;20970;-61
2023/10/20 10:56:28;0.00;0.00;0.62;0.00;0.00;0.62;3.93;2.80;;;22.10;26.90;;;;;;2264863;61;20425;-62
2023/10/20 10:59:14;0.00;0.00;0.62;0.00;0.00;0.62;4.60;3.40;;;22.10;26.90;;;;;;2261197;61;20450;-61
2023/10/20 11:02:02;0.00;0.00;0.62;0.00;0.00;0.62;4.20;3.60;;;22.10;27.40;;;;;;2261644;61;20352;-59
2023/10/20 11:04:47;0.00;0.00;0.62;0.00;0.00;0.62;4.17;3.50;;;22.10;26.90;;;;;;2261256;61;20368;-61
2023/10/20 11:07:34;0.00;0.00;0.62;0.00;0.00;0.62;3.20;2.90;;;22.20;26.90;;;;;;2265003;61;20406;-63
2023/10/20 11:10:20;0.00;0.00;0.62;0.00;0.00;0.62;6.47;4.60;;;22.10;26.90;;;;;;2264603;61;20384;-63
2023/10/20 11:13:07;0.00;0.00;0.62;0.00;0.00;0.62;5.00;3.20;;;22.10;26.90;;;;;;2264743;61;20871;-63
2023/10/20 11:15:52;0.00;0.00;0.62;0.00;0.00;0.62;5.23;3.70;;;22.10;26.80;;;;;;2264676;61;20364;-62
2023/10/20 11:18:37;0.00;0.00;0.62;0.00;0.00;0.62;5.03;3.63;;;22.20;26.90;;;;;;2264324;61;20414;-62